Time;durP1;ratioP1;P1;durP2;ratioP2;P2;SDS_P1;SDS_P2;PMS_P1;PMS_P2;Temp;Humidity;BMP_temperature;BMP_pressure;BME280_temperature;BME280_humidity;BME280_pressure;Samples;Min_cycle;Max_cycle;Signal;HPM_P1;HPM_P2
2022/09/27 00:01:22;;;;;;;7.28;1.58;;;;;;;;;;5051878;28;20049;-67
2022/09/27 00:03:48;;;;;;;8.77;1.50;;;;;;;;;;5048355;28;20037;-67
2022/09/27 00:06:24;;;;;;;6.85;1.50;;;;;;;;;;5051594;28;20044;-67
2022/09/27 00:08:50;;;;;;;7.35;1.45;;;;;;;;;;5050965;28;20047;-67
2022/09/27 00:11:27;;;;;;;7.15;1.65;;;;;;;;;;5051817;28;20033;-67
2022/09/27 00:13:54;;;;;;;7.38;1.60;;;;;;;;;;5047576;28;20037;-67
2022/09/27 00:16:21;;;;;;;7.97;1.50;;;;;;;;;;5049872;28;20116;-67
2022/09/27 00:18:47;;;;;;;7.50;1.50;;;;;;;;;;5047358;28;20040;-67
2022/09/27 00:21:13;;;;;;;5.85;1.40;;;;;;;;;;5031271;28;20045;-67
2022/09/27 00:23:39;;;;;;;9.13;1.52;;;;;;;;;;5049426;28;20071;-67
2022/09/27 00:26:06;;;;;;;6.35;1.20;;;;;;;;;;5050840;28;20045;-67
2022/09/27 00:28:33;;;;;;;7.00;1.38;;;;;;;;;;5049854;28;20041;-67
2022/09/27 00:30:59;;;;;;;5.32;1.73;;;;;;;;;;5048727;28;20495;-67
2022/09/27 00:33:26;;;;;;;6.50;1.10;;;;;;;;;;5048885;28;20079;-67
2022/09/27 00:35:52;;;;;;;6.90;1.40;;;;;;;;;;5049002;28;20116;-67
2022/09/27 00:38:18;;;;;;;7.47;1.20;;;;;;;;;;5049318;28;20406;-67
2022/09/27 00:40:45;;;;;;;9.55;1.30;;;;;;;;;;5049810;28;20041;-67
2022/09/27 00:43:21;;;;;;;7.28;0.90;;;;;;;;;;5048652;28;20487;-67
2022/09/27 00:45:49;;;;;;;4.57;1.13;;;;;;;;;;5053660;28;20036;-67
2022/09/27 00:48:17;;;;;;;5.00;0.82;;;;;;;;;;5039951;28;20386;-67
2022/09/27 00:50:45;;;;;;;6.72;0.93;;;;;;;;;;5032064;28;20444;-67
2022/09/27 00:53:11;;;;;;;7.88;1.00;;;;;;;;;;5053179;28;20041;-67
2022/09/27 00:55:43;;;;;;;4.68;0.82;;;;;;;;;;5051030;28;20037;-67
2022/09/27 00:58:09;;;;;;;4.15;1.13;;;;;;;;;;5049765;28;20033;-67
2022/09/27 01:00:38;;;;;;;5.07;0.98;;;;;;;;;;5049802;28;20048;-67
2022/09/27 01:03:06;;;;;;;5.65;0.90;;;;;;;;;;5049602;28;20041;-67
2022/09/27 01:05:32;;;;;;;4.88;1.00;;;;;;;;;;5050189;28;20190;-67
2022/09/27 01:07:59;;;;;;;6.15;0.90;;;;;;;;;;5057387;28;20033;-67
2022/09/27 01:10:27;;;;;;;5.03;0.70;;;;;;;;;;5050951;28;20073;-67
2022/09/27 01:12:59;;;;;;;7.00;1.17;;;;;;;;;;5043232;28;20041;-67
2022/09/27 01:15:29;;;;;;;4.85;1.05;;;;;;;;;;5046305;28;20506;-67
2022/09/27 01:17:58;;;;;;;5.38;0.70;;;;;;;;;;5047392;28;20040;-67
2022/09/27 01:20:30;;;;;;;3.88;0.70;;;;;;;;;;5049129;28;20458;-67
2022/09/27 01:22:58;;;;;;;2.90;0.80;;;;;;;;;;5050215;28;20060;-67
2022/09/27 01:25:50;;;;;;;4.10;0.85;;;;;;;;;;5052190;28;20041;-67
2022/09/27 01:28:31;;;;;;;4.75;1.08;;;;;;;;;;5057590;28;20757;-67
2022/09/27 01:31:16;;;;;;;4.90;1.00;;;;;;;;;;5051112;28;20052;-67
2022/09/27 01:33:48;;;;;;;2.97;0.70;;;;;;;;;;5048878;28;20410;-67
2022/09/27 01:36:21;;;;;;;5.25;0.88;;;;;;;;;;5048885;28;20045;-67
2022/09/27 01:38:55;;;;;;;3.78;0.90;;;;;;;;;;5049293;28;20098;-67
2022/09/27 01:41:36;;;;;;;3.85;0.77;;;;;;;;;;5033161;28;20102;-67
2022/09/27 01:44:06;;;;;;;6.57;0.85;;;;;;;;;;5047651;28;20044;-67
2022/09/27 01:46:52;;;;;;;7.68;0.90;;;;;;;;;;5042030;28;20070;-67
2022/09/27 01:49:23;;;;;;;6.60;0.90;;;;;;;;;;5046468;28;20063;-69
2022/09/27 01:51:53;;;;;;;2.97;0.60;;;;;;;;;;5051275;28;20090;-68
2022/09/27 01:54:23;;;;;;;2.28;0.60;;;;;;;;;;5053642;28;20044;-69
2022/09/27 01:56:51;;;;;;;3.45;0.52;;;;;;;;;;5050130;28;20047;-67
2022/09/27 01:59:24;;;;;;;2.58;0.65;;;;;;;;;;5052554;28;20491;-68
2022/09/27 02:01:51;;;;;;;2.40;0.60;;;;;;;;;;5074135;22;20056;-63
2022/09/27 02:04:20;;;;;;;8.27;0.75;;;;;;;;;;5051390;28;20037;-63
2022/09/27 02:06:48;;;;;;;4.70;0.65;;;;;;;;;;5052826;28;20033;-63
2022/09/27 02:09:29;;;;;;;2.22;0.68;;;;;;;;;;5054081;28;20406;-63
2022/09/27 02:11:58;;;;;;;4.68;0.90;;;;;;;;;;5051006;28;20040;-63
2022/09/27 02:14:26;;;;;;;3.35;0.60;;;;;;;;;;5034340;28;20049;-63
2022/09/27 02:16:53;;;;;;;4.25;0.60;;;;;;;;;;5047993;28;20706;-63
2022/09/27 02:19:26;;;;;;;5.07;0.60;;;;;;;;;;5049416;28;20109;-62
2022/09/27 02:21:59;;;;;;;6.28;0.93;;;;;;;;;;5039280;28;20051;-62
2022/09/27 02:24:32;;;;;;;3.13;0.80;;;;;;;;;;5040623;28;20049;-62
2022/09/27 02:27:04;;;;;;;3.28;0.80;;;;;;;;;;5037520;28;20037;-62
2022/09/27 02:29:37;;;;;;;2.90;0.80;;;;;;;;;;5040920;28;20546;-62
2022/09/27 02:32:03;;;;;;;3.50;0.60;;;;;;;;;;5033375;28;20037;-62
2022/09/27 02:34:30;;;;;;;1.35;0.60;;;;;;;;;;5030765;28;20057;-62
2022/09/27 02:36:56;;;;;;;5.53;0.90;;;;;;;;;;5033322;28;20041;-62
2022/09/27 02:39:22;;;;;;;3.35;0.60;;;;;;;;;;5030388;28;20111;-62
2022/09/27 02:41:49;;;;;;;5.35;0.70;;;;;;;;;;5041442;28;20403;-63
2022/09/27 02:44:16;;;;;;;4.32;0.82;;;;;;;;;;5039406;28;20057;-63
2022/09/27 02:46:51;;;;;;;3.67;0.70;;;;;;;;;;5036717;28;20464;-62
2022/09/27 02:49:19;;;;;;;2.92;0.60;;;;;;;;;;5032516;28;20041;-63
2022/09/27 02:52:05;;;;;;;4.72;0.70;;;;;;;;;;5031548;28;20077;-63
2022/09/27 02:54:32;;;;;;;3.40;0.52;;;;;;;;;;5032798;28;20083;-63
2022/09/27 02:56:58;;;;;;;6.03;0.93;;;;;;;;;;5034300;28;20049;-63
2022/09/27 02:59:43;;;;;;;4.20;0.77;;;;;;;;;;5031268;28;20041;-62
2022/09/27 03:02:27;;;;;;;3.90;0.60;;;;;;;;;;5034483;28;20037;-63
2022/09/27 03:05:02;;;;;;;3.78;0.70;;;;;;;;;;5031468;28;20407;-63
2022/09/27 03:07:29;;;;;;;5.72;0.60;;;;;;;;;;5031985;28;20394;-63
2022/09/27 03:09:55;;;;;;;2.78;0.47;;;;;;;;;;5037499;28;20040;-62
2022/09/27 03:12:24;;;;;;;2.28;0.50;;;;;;;;;;5042565;28;20145;-62
2022/09/27 03:14:51;;;;;;;2.33;0.55;;;;;;;;;;5029436;28;20418;-63
2022/09/27 03:17:17;;;;;;;4.47;0.85;;;;;;;;;;5031075;28;20498;-63
2022/09/27 03:19:43;;;;;;;3.03;0.50;;;;;;;;;;5030753;28;20438;-63
2022/09/27 03:22:10;;;;;;;3.05;0.70;;;;;;;;;;5030490;28;20046;-63
2022/09/27 03:24:36;;;;;;;2.58;0.63;;;;;;;;;;5030771;28;20055;-63
2022/09/27 03:27:02;;;;;;;1.40;0.57;;;;;;;;;;5031863;28;20037;-63
2022/09/27 03:29:28;;;;;;;3.90;0.45;;;;;;;;;;5031773;28;20413;-63
2022/09/27 03:31:54;;;;;;;2.80;0.60;;;;;;;;;;5030680;28;20086;-63
2022/09/27 03:34:21;;;;;;;2.15;0.80;;;;;;;;;;5031879;28;20128;-63
2022/09/27 03:36:47;;;;;;;3.47;0.45;;;;;;;;;;5031241;28;20037;-63
2022/09/27 03:39:13;;;;;;;2.60;0.63;;;;;;;;;;5031046;28;20044;-63
2022/09/27 03:41:40;;;;;;;3.08;0.65;;;;;;;;;;5033042;28;20049;-63
2022/09/27 03:44:06;;;;;;;4.00;0.68;;;;;;;;;;5030518;28;20052;-63
2022/09/27 03:46:32;;;;;;;3.65;0.60;;;;;;;;;;5026381;28;20041;-63
2022/09/27 03:48:58;;;;;;;2.53;0.40;;;;;;;;;;5030400;28;20033;-63
2022/09/27 03:51:24;;;;;;;3.25;0.60;;;;;;;;;;5031071;28;20040;-63
2022/09/27 03:53:50;;;;;;;1.52;0.35;;;;;;;;;;5027318;28;20033;-63
2022/09/27 03:56:16;;;;;;;3.00;0.65;;;;;;;;;;5035181;28;20124;-63
2022/09/27 03:58:43;;;;;;;2.33;0.43;;;;;;;;;;5030819;28;20048;-63
2022/09/27 04:01:09;;;;;;;4.80;0.82;;;;;;;;;;5030602;28;20048;-63
2022/09/27 04:03:35;;;;;;;3.92;0.47;;;;;;;;;;5017390;28;20077;-63
2022/09/27 04:06:01;;;;;;;3.83;0.90;;;;;;;;;;5027097;28;20072;-63
2022/09/27 04:08:29;;;;;;;2.70;0.75;;;;;;;;;;5030168;28;20038;-63
2022/09/27 04:10:55;;;;;;;2.63;0.52;;;;;;;;;;5038508;28;20052;-63
2022/09/27 04:13:21;;;;;;;2.53;0.70;;;;;;;;;;5028710;28;20040;-63
2022/09/27 04:15:47;;;;;;;2.10;0.70;;;;;;;;;;5030786;28;20041;-63
2022/09/27 04:18:13;;;;;;;3.08;0.60;;;;;;;;;;5031935;28;20447;-63
2022/09/27 04:20:39;;;;;;;2.58;0.40;;;;;;;;;;5031975;28;20041;-63
2022/09/27 04:23:06;;;;;;;2.03;0.45;;;;;;;;;;5027908;28;20095;-63
2022/09/27 04:25:32;;;;;;;1.70;0.50;;;;;;;;;;5031609;28;20077;-63
2022/09/27 04:27:59;;;;;;;4.00;0.50;;;;;;;;;;5030271;28;20057;-63
2022/09/27 04:30:26;;;;;;;2.15;0.70;;;;;;;;;;5031590;28;20056;-63
2022/09/27 04:32:52;;;;;;;4.57;0.77;;;;;;;;;;5028596;28;20068;-63
2022/09/27 04:38:03;;;;;;;4.03;0.50;;;;;;;;;;5037364;28;20116;-63
2022/09/27 04:40:29;;;;;;;2.63;0.63;;;;;;;;;;5031144;28;20049;-63
2022/09/27 04:42:55;;;;;;;5.22;0.70;;;;;;;;;;5029907;28;20037;-63
2022/09/27 04:45:21;;;;;;;6.05;0.90;;;;;;;;;;5029331;28;20503;-63
2022/09/27 04:47:49;;;;;;;2.53;0.60;;;;;;;;;;5036120;28;20128;-63
2022/09/27 04:50:16;;;;;;;4.05;0.70;;;;;;;;;;5038811;28;20041;-63
2022/09/27 04:52:42;;;;;;;2.53;0.98;;;;;;;;;;5039042;28;20030;-63
2022/09/27 04:55:09;;;;;;;1.20;0.47;;;;;;;;;;5029901;28;20388;-63
2022/09/27 04:57:35;;;;;;;2.03;0.50;;;;;;;;;;5033535;28;20427;-63
2022/09/27 05:00:01;;;;;;;3.85;0.70;;;;;;;;;;5026673;28;20092;-63
2022/09/27 05:02:28;;;;;;;2.13;0.80;;;;;;;;;;5029470;28;20079;-63
2022/09/27 05:04:58;;;;;;;2.03;0.43;;;;;;;;;;5037449;28;20041;-63
2022/09/27 05:07:25;;;;;;;3.20;0.60;;;;;;;;;;5037901;28;20048;-63
2022/09/27 05:09:51;;;;;;;2.55;0.55;;;;;;;;;;5030691;28;20117;-62
2022/09/27 05:12:17;;;;;;;3.33;0.57;;;;;;;;;;5029815;28;20041;-63
2022/09/27 05:14:43;;;;;;;2.28;0.73;;;;;;;;;;5028987;28;20132;-63
2022/09/27 05:17:10;;;;;;;3.80;0.63;;;;;;;;;;5030023;28;20078;-63
2022/09/27 05:19:38;;;;;;;3.00;0.50;;;;;;;;;;5030695;28;20415;-63
2022/09/27 05:22:05;;;;;;;3.08;0.70;;;;;;;;;;5031410;28;20053;-63
2022/09/27 05:24:32;;;;;;;2.42;0.70;;;;;;;;;;5033045;28;20096;-63
2022/09/27 05:26:58;;;;;;;3.83;0.52;;;;;;;;;;5035555;28;20073;-63
2022/09/27 05:29:24;;;;;;;2.78;0.65;;;;;;;;;;5030600;28;20037;-63
2022/09/27 05:31:50;;;;;;;4.13;0.60;;;;;;;;;;5040924;28;20044;-63
2022/09/27 05:34:19;;;;;;;4.57;0.63;;;;;;;;;;5037447;28;20041;-63
2022/09/27 05:36:47;;;;;;;4.22;0.75;;;;;;;;;;5043389;28;20131;-63
2022/09/27 05:39:15;;;;;;;2.25;0.50;;;;;;;;;;5036353;28;20065;-63
2022/09/27 05:41:41;;;;;;;3.65;0.60;;;;;;;;;;5033761;28;20052;-63
2022/09/27 05:44:07;;;;;;;2.55;0.50;;;;;;;;;;5031513;28;20042;-63
2022/09/27 05:46:33;;;;;;;2.65;0.50;;;;;;;;;;5038376;28;20044;-63
2022/09/27 05:48:59;;;;;;;2.20;0.65;;;;;;;;;;5039902;28;20487;-63
2022/09/27 05:51:25;;;;;;;2.35;0.70;;;;;;;;;;5033972;28;20048;-63
2022/09/27 05:53:51;;;;;;;3.95;0.77;;;;;;;;;;5033564;28;20041;-63
2022/09/27 05:56:17;;;;;;;2.65;0.60;;;;;;;;;;5032846;28;20041;-63
2022/09/27 05:58:43;;;;;;;3.85;0.90;;;;;;;;;;5034669;28;20155;-63
2022/09/27 06:01:09;;;;;;;3.72;1.20;;;;;;;;;;5041239;28;20033;-63
2022/09/27 06:03:36;;;;;;;3.83;1.15;;;;;;;;;;5027365;28;20091;-63
2022/09/27 06:06:05;;;;;;;3.55;1.17;;;;;;;;;;5033604;28;20053;-63
2022/09/27 06:08:33;;;;;;;3.42;0.60;;;;;;;;;;5026041;28;20522;-63
2022/09/27 06:11:04;;;;;;;2.40;0.55;;;;;;;;;;5033063;28;20538;-63
2022/09/27 06:13:30;;;;;;;3.78;1.10;;;;;;;;;;5034657;28;20406;-63
2022/09/27 06:15:58;;;;;;;2.08;0.73;;;;;;;;;;5053563;28;20115;-62
2022/09/27 06:18:24;;;;;;;2.42;0.70;;;;;;;;;;5036744;28;20078;-63
2022/09/27 06:20:50;;;;;;;2.45;0.63;;;;;;;;;;5033495;28;20380;-63
2022/09/27 06:23:17;;;;;;;2.85;0.50;;;;;;;;;;5043757;28;20037;-63
2022/09/27 06:25:44;;;;;;;1.55;0.52;;;;;;;;;;5032445;28;20085;-63
2022/09/27 06:28:10;;;;;;;2.55;0.77;;;;;;;;;;5026983;28;20029;-63
2022/09/27 06:30:40;;;;;;;5.38;0.82;;;;;;;;;;5035934;28;20037;-63
2022/09/27 06:33:07;;;;;;;3.17;0.77;;;;;;;;;;5034607;28;20529;-62
2022/09/27 06:35:34;;;;;;;2.30;0.60;;;;;;;;;;5035170;28;20053;-63
2022/09/27 06:38:05;;;;;;;4.85;0.70;;;;;;;;;;5031186;28;20038;-63
2022/09/27 06:40:32;;;;;;;5.65;0.88;;;;;;;;;;5022755;28;20112;-63
2022/09/27 06:43:10;;;;;;;3.20;0.80;;;;;;;;;;5046795;28;20044;-63
2022/09/27 06:45:36;;;;;;;5.35;1.02;;;;;;;;;;5032579;28;20439;-63
2022/09/27 06:48:03;;;;;;;5.90;0.80;;;;;;;;;;5038372;28;20029;-63
2022/09/27 06:50:31;;;;;;;4.07;0.80;;;;;;;;;;5027375;28;20041;-63
2022/09/27 06:52:58;;;;;;;3.90;1.02;;;;;;;;;;5043256;28;20132;-63
2022/09/27 06:55:24;;;;;;;2.85;0.90;;;;;;;;;;5032023;28;20048;-63
2022/09/27 07:00:41;;;;;;;;;;;;;;;;;;5024028;28;20046;-64
2022/09/27 07:03:10;;;;;;;5.97;1.05;;;;;;;;;;5033047;28;19924;-64
2022/09/27 07:05:36;;;;;;;4.95;0.90;;;;;;;;;;5032757;28;20116;-64
2022/09/27 07:08:02;;;;;;;3.60;0.90;;;;;;;;;;5031750;28;20044;-64
2022/09/27 07:10:32;;;;;;;6.10;0.80;;;;;;;;;;5042651;28;20065;-64
2022/09/27 07:13:04;;;;;;;5.32;0.90;;;;;;;;;;5035301;28;20235;-64
2022/09/27 07:15:31;;;;;;;4.53;1.00;;;;;;;;;;5031944;28;20510;-64
2022/09/27 07:17:57;;;;;;;5.03;0.98;;;;;;;;;;5031940;28;20411;-63
2022/09/27 07:20:24;;;;;;;2.88;0.65;;;;;;;;;;5030089;28;20064;-64
2022/09/27 07:22:50;;;;;;;3.88;0.80;;;;;;;;;;5028842;28;20033;-63
2022/09/27 07:25:17;;;;;;;4.75;1.00;;;;;;;;;;5041753;28;20077;-63
2022/09/27 07:27:43;;;;;;;4.30;0.90;;;;;;;;;;5044939;28;20037;-62
2022/09/27 07:30:09;;;;;;;5.53;0.98;;;;;;;;;;5029352;28;20041;-62
2022/09/27 07:32:35;;;;;;;5.82;1.63;;;;;;;;;;5042333;28;20127;-63
2022/09/27 07:35:05;;;;;;;3.40;1.05;;;;;;;;;;5040538;28;20049;-62
2022/09/27 07:37:32;;;;;;;3.40;0.88;;;;;;;;;;5030806;28;20056;-63
2022/09/27 07:39:59;;;;;;;3.72;0.82;;;;;;;;;;5038484;28;20033;-63
2022/09/27 07:42:25;;;;;;;1.23;0.60;;;;;;;;;;5030106;28;20037;-62
2022/09/27 07:44:51;;;;;;;5.07;0.77;;;;;;;;;;5037847;28;20041;-63
2022/09/27 07:47:18;;;;;;;5.57;0.88;;;;;;;;;;5024691;28;20403;-62
2022/09/27 07:49:44;;;;;;;6.10;0.80;;;;;;;;;;5027572;28;20045;-63
2022/09/27 07:52:10;;;;;;;2.95;0.90;;;;;;;;;;5034101;28;20037;-62
2022/09/27 07:54:36;;;;;;;3.17;1.05;;;;;;;;;;5040342;28;20140;-62
2022/09/27 07:57:02;;;;;;;4.40;0.73;;;;;;;;;;5029059;28;20080;-63
2022/09/27 07:59:28;;;;;;;2.75;0.75;;;;;;;;;;5036109;28;20068;-63
2022/09/27 08:01:54;;;;;;;2.28;0.60;;;;;;;;;;5045801;28;20037;-63
2022/09/27 08:04:21;;;;;;;5.40;0.93;;;;;;;;;;5031264;28;20048;-63
2022/09/27 08:06:47;;;;;;;1.80;0.50;;;;;;;;;;5031934;28;20442;-63
2022/09/27 08:09:13;;;;;;;3.10;0.77;;;;;;;;;;5055821;22;20127;-66
2022/09/27 08:11:39;;;;;;;1.15;0.50;;;;;;;;;;5051421;28;20094;-66
2022/09/27 08:14:05;;;;;;;4.97;0.82;;;;;;;;;;5052011;28;20095;-66
2022/09/27 08:16:34;;;;;;;2.15;0.50;;;;;;;;;;5049936;28;20295;-66
2022/09/27 08:19:00;;;;;;;3.40;0.50;;;;;;;;;;5047506;28;20040;-66
2022/09/27 08:21:26;;;;;;;2.80;0.63;;;;;;;;;;5048146;28;20045;-66
2022/09/27 08:23:52;;;;;;;2.63;0.60;;;;;;;;;;5053771;28;20119;-67
2022/09/27 08:26:18;;;;;;;2.97;0.60;;;;;;;;;;5053441;28;20069;-66
2022/09/27 08:28:47;;;;;;;3.38;1.60;;;;;;;;;;5051158;28;20072;-67
2022/09/27 08:31:13;;;;;;;5.80;0.60;;;;;;;;;;5049045;28;20037;-66
2022/09/27 08:33:39;;;;;;;3.33;0.60;;;;;;;;;;5049362;28;20039;-67
2022/09/27 08:36:10;;;;;;;1.83;0.30;;;;;;;;;;5049050;28;20033;-67
2022/09/27 08:38:36;;;;;;;4.88;0.63;;;;;;;;;;5044020;28;20033;-67
2022/09/27 08:41:11;;;;;;;2.13;0.60;;;;;;;;;;5050683;28;20187;-67
2022/09/27 08:43:57;;;;;;;2.22;0.50;;;;;;;;;;5050888;28;20095;-66
2022/09/27 08:46:48;;;;;;;4.13;0.50;;;;;;;;;;5048222;28;20064;-67
2022/09/27 08:49:18;;;;;;;4.35;0.43;;;;;;;;;;5049467;28;20076;-67
2022/09/27 08:51:46;;;;;;;1.15;0.40;;;;;;;;;;5052005;28;20421;-67
2022/09/27 08:54:21;;;;;;;2.22;0.40;;;;;;;;;;5048651;28;20041;-67
2022/09/27 08:56:51;;;;;;;1.67;0.40;;;;;;;;;;5050626;28;20511;-67
2022/09/27 08:59:20;;;;;;;2.28;0.68;;;;;;;;;;5056725;28;20136;-67
2022/09/27 09:01:47;;;;;;;2.80;0.65;;;;;;;;;;5055230;28;20087;-67
2022/09/27 09:04:18;;;;;;;1.17;0.43;;;;;;;;;;5053565;28;20041;-67
2022/09/27 09:06:44;;;;;;;;;;;;;;;;;;5055783;28;20037;-67
2022/09/27 09:09:36;;;;;;;1.38;0.35;;;;;;;;;;5057893;28;19917;-67
2022/09/27 09:14:53;;;;;;;1.83;0.40;;;;;;;;;;5051261;28;20045;-67
2022/09/27 09:17:39;;;;;;;1.27;0.47;;;;;;;;;;5043503;28;20142;-66
2022/09/27 09:20:24;;;;;;;2.92;0.20;;;;;;;;;;5051604;28;20045;-66
2022/09/27 09:23:10;;;;;;;2.72;0.30;;;;;;;;;;5046478;28;20045;-66
2022/09/27 09:25:45;;;;;;;1.25;0.30;;;;;;;;;;5054633;28;20044;-66
2022/09/27 09:28:17;;;;;;;1.88;0.40;;;;;;;;;;5052737;28;20056;-66
2022/09/27 09:30:43;;;;;;;0.70;0.40;;;;;;;;;;5052577;28;20084;-66
2022/09/27 09:33:09;;;;;;;2.35;0.40;;;;;;;;;;5049829;28;20467;-67
2022/09/27 09:35:36;;;;;;;3.33;0.60;;;;;;;;;;5048835;28;20154;-66
2022/09/27 09:38:04;;;;;;;2.15;0.50;;;;;;;;;;5052708;28;20041;-67
2022/09/27 09:40:37;;;;;;;3.30;0.60;;;;;;;;;;5051932;28;20055;-67
2022/09/27 09:43:15;;;;;;;2.70;0.70;;;;;;;;;;5050655;28;20076;-67
2022/09/27 09:45:46;;;;;;;6.18;0.80;;;;;;;;;;5053080;28;20084;-66
2022/09/27 09:48:15;;;;;;;1.98;0.93;;;;;;;;;;5049605;28;20083;-69
2022/09/27 09:50:49;;;;;;;4.20;0.90;;;;;;;;;;5052422;28;20036;-67
2022/09/27 09:53:21;;;;;;;2.30;0.73;;;;;;;;;;5049887;28;20037;-67
2022/09/27 09:55:59;;;;;;;2.00;0.50;;;;;;;;;;5052421;28;20101;-67
2022/09/27 09:58:32;;;;;;;1.63;0.40;;;;;;;;;;5053017;28;20048;-67
2022/09/27 10:01:00;;;;;;;2.53;0.30;;;;;;;;;;5051933;28;20094;-66
2022/09/27 10:03:27;;;;;;;2.63;0.50;;;;;;;;;;5051854;28;20506;-66
2022/09/27 10:05:53;;;;;;;2.20;0.45;;;;;;;;;;5048459;28;20128;-68
2022/09/27 10:08:20;;;;;;;2.55;0.60;;;;;;;;;;5050821;28;20126;-67
2022/09/27 10:10:47;;;;;;;2.00;0.22;;;;;;;;;;5045725;28;20040;-66
2022/09/27 10:13:17;;;;;;;2.42;0.50;;;;;;;;;;5052679;28;20059;-66
2022/09/27 10:15:47;;;;;;;1.33;0.30;;;;;;;;;;5047675;28;20460;-65
2022/09/27 10:18:17;;;;;;;0.75;0.20;;;;;;;;;;5049728;28;20049;-65
2022/09/27 10:20:46;;;;;;;1.10;0.20;;;;;;;;;;5053176;28;20093;-66
2022/09/27 10:23:23;;;;;;;2.17;0.22;;;;;;;;;;5054780;28;20044;-66
2022/09/27 10:25:54;;;;;;;0.45;0.28;;;;;;;;;;5045888;28;20517;-66
2022/09/27 10:28:36;;;;;;;3.40;0.40;;;;;;;;;;5053524;28;20040;-66
2022/09/27 10:31:09;;;;;;;2.13;0.30;;;;;;;;;;5052117;28;20040;-65
2022/09/27 10:33:37;;;;;;;1.85;0.30;;;;;;;;;;5049082;28;20036;-67
2022/09/27 10:36:03;;;;;;;1.33;0.20;;;;;;;;;;5049211;28;20549;-67
2022/09/27 10:38:32;;;;;;;1.05;0.38;;;;;;;;;;5051931;28;20037;-68
2022/09/27 10:41:15;;;;;;;0.30;0.20;;;;;;;;;;5051555;28;20041;-67
2022/09/27 10:43:41;;;;;;;0.93;0.30;;;;;;;;;;5046691;28;20490;-67
2022/09/27 10:46:10;;;;;;;2.15;0.30;;;;;;;;;;5069835;28;20128;-68
2022/09/27 10:48:38;;;;;;;1.27;0.20;;;;;;;;;;5056130;28;20031;-67
2022/09/27 10:51:05;;;;;;;1.02;0.30;;;;;;;;;;5052586;28;20510;-67
2022/09/27 10:53:32;;;;;;;1.77;0.30;;;;;;;;;;5051786;28;20041;-67
2022/09/27 10:55:58;;;;;;;0.68;0.20;;;;;;;;;;5038219;28;20049;-68
2022/09/27 10:58:34;;;;;;;1.55;0.50;;;;;;;;;;5041592;28;20033;-68
2022/09/27 11:01:02;;;;;;;2.22;0.30;;;;;;;;;;5052859;28;20044;-67
2022/09/27 11:03:29;;;;;;;2.50;0.50;;;;;;;;;;5052487;28;20048;-68
2022/09/27 11:05:58;;;;;;;1.38;0.35;;;;;;;;;;5055884;28;20076;-68
2022/09/27 11:08:28;;;;;;;1.30;0.30;;;;;;;;;;5050351;28;20087;-68
2022/09/27 11:11:00;;;;;;;0.52;0.30;;;;;;;;;;5054401;28;20125;-68
2022/09/27 11:13:31;;;;;;;1.13;0.22;;;;;;;;;;5059033;28;20872;-68
2022/09/27 11:15:57;;;;;;;;;;;;;;;;;;5048565;28;20072;-69
2022/09/27 11:18:31;;;;;;;4.20;0.68;;;;;;;;;;5055635;28;20012;-68
2022/09/27 11:21:17;;;;;;;1.00;0.50;;;;;;;;;;5051970;28;20505;-68
2022/09/27 11:24:05;;;;;;;2.92;0.52;;;;;;;;;;5047693;28;20559;-68
2022/09/27 11:26:34;;;;;;;1.25;0.40;;;;;;;;;;5048740;28;20037;-68
2022/09/27 11:29:06;;;;;;;1.33;0.35;;;;;;;;;;5047568;28;20033;-68
2022/09/27 11:31:32;;;;;;;4.25;0.45;;;;;;;;;;5050466;28;20052;-68
2022/09/27 11:34:17;;;;;;;2.75;0.55;;;;;;;;;;5051720;28;20037;-68
2022/09/27 11:36:51;;;;;;;1.00;0.45;;;;;;;;;;5045961;28;20045;-68
2022/09/27 11:39:23;;;;;;;0.93;0.40;;;;;;;;;;5051369;28;20410;-68
2022/09/27 11:41:49;;;;;;;1.10;0.28;;;;;;;;;;5055210;28;20120;-69
2022/09/27 11:44:41;;;;;;;3.08;0.60;;;;;;;;;;5050540;28;20467;-68
2022/09/27 11:47:14;;;;;;;1.55;0.35;;;;;;;;;;5025114;28;20045;-68
2022/09/27 11:49:46;;;;;;;1.13;0.15;;;;;;;;;;5050148;28;20058;-67
2022/09/27 11:52:18;;;;;;;3.28;0.50;;;;;;;;;;5055733;28;20047;-68
2022/09/27 11:55:23;;;;;;;1.77;0.30;;;;;;;;;;5051792;28;20494;-68
2022/09/27 11:57:51;;;;;;;1.27;0.28;;;;;;;;;;4967960;28;20050;-69
2022/09/27 12:00:23;;;;;;;2.00;0.10;;;;;;;;;;4969804;28;20049;-68
2022/09/27 12:03:07;;;;;;;1.75;0.30;;;;;;;;;;5011143;28;20517;-68
2022/09/27 12:05:52;;;;;;;0.50;0.20;;;;;;;;;;5050109;28;20461;-68
2022/09/27 12:08:37;;;;;;;1.05;0.20;;;;;;;;;;5049788;28;20405;-68
2022/09/27 12:11:22;;;;;;;1.80;0.30;;;;;;;;;;5049221;28;20052;-67
2022/09/27 12:13:54;;;;;;;0.40;0.20;;;;;;;;;;5041511;28;20162;-66
2022/09/27 12:16:20;;;;;;;0.70;0.00;;;;;;;;;;5049907;28;20097;-67
2022/09/27 12:18:48;;;;;;;0.13;0.13;;;;;;;;;;5048050;28;20131;-66
2022/09/27 12:21:15;;;;;;;0.40;0.20;;;;;;;;;;5046678;28;20044;-67
2022/09/27 12:23:44;;;;;;;0.20;0.20;;;;;;;;;;5050196;28;20044;-66
2022/09/27 12:26:33;;;;;;;0.28;0.17;;;;;;;;;;5049258;28;20101;-66
2022/09/27 12:29:15;;;;;;;0.98;0.20;;;;;;;;;;5045567;28;20044;-67
2022/09/27 12:31:50;;;;;;;0.57;0.30;;;;;;;;;;5040987;28;20045;-67
2022/09/27 12:34:19;;;;;;;0.57;0.20;;;;;;;;;;5049737;28;20174;-67
2022/09/27 12:36:51;;;;;;;1.17;0.30;;;;;;;;;;5049760;28;20048;-68
2022/09/27 12:39:20;;;;;;;0.95;0.30;;;;;;;;;;5050453;28;20071;-67
2022/09/27 12:41:48;;;;;;;1.95;0.30;;;;;;;;;;5050839;28;20045;-67
2022/09/27 12:44:14;;;;;;;0.88;0.25;;;;;;;;;;5051537;28;20037;-68
2022/09/27 12:46:44;;;;;;;2.25;0.30;;;;;;;;;;5046443;28;20036;-66
2022/09/27 12:49:36;;;;;;;1.75;0.30;;;;;;;;;;5045829;28;20045;-66
2022/09/27 12:52:10;;;;;;;1.60;0.22;;;;;;;;;;5046912;28;20091;-66
2022/09/27 12:54:36;;;;;;;1.05;0.30;;;;;;;;;;5048592;28;20048;-67
2022/09/27 12:57:03;;;;;;;0.68;0.20;;;;;;;;;;5046511;28;20076;-66
2022/09/27 12:59:47;;;;;;;2.30;0.70;;;;;;;;;;5048962;28;20105;-67
2022/09/27 13:02:25;;;;;;;0.95;0.20;;;;;;;;;;5049043;28;20156;-67
2022/09/27 13:05:00;;;;;;;2.65;0.50;;;;;;;;;;5047486;28;20055;-67
2022/09/27 13:07:35;;;;;;;2.05;0.50;;;;;;;;;;5049094;28;20048;-66
2022/09/27 13:10:18;;;;;;;7.00;0.75;;;;;;;;;;5050692;28;20041;-66
2022/09/27 13:12:53;;;;;;;1.50;0.45;;;;;;;;;;5047939;28;20044;-66
2022/09/27 13:15:19;;;;;;;1.17;0.28;;;;;;;;;;5051068;28;20426;-66
2022/09/27 13:17:49;;;;;;;2.15;0.50;;;;;;;;;;5047495;28;20029;-67
2022/09/27 13:20:38;;;;;;;2.75;0.70;;;;;;;;;;5050594;28;20083;-67
2022/09/27 13:23:19;;;;;;;3.28;0.63;;;;;;;;;;5046961;28;20106;-66
2022/09/27 13:25:50;;;;;;;1.67;0.28;;;;;;;;;;5049223;28;20473;-66
2022/09/27 13:28:16;;;;;;;;;;;;;;;;;;5049286;28;20115;-66
2022/09/27 13:30:43;;;;;;;3.88;0.40;;;;;;;;;;5049291;28;20400;-66
2022/09/27 13:33:12;;;;;;;2.47;0.47;;;;;;;;;;5046020;28;20033;-65
2022/09/27 13:35:39;;;;;;;1.30;0.30;;;;;;;;;;5049336;28;20041;-66
2022/09/27 13:38:05;;;;;;;1.55;0.38;;;;;;;;;;5047564;28;20041;-67
2022/09/27 13:40:35;;;;;;;1.85;0.30;;;;;;;;;;5054395;28;20423;-66
2022/09/27 13:43:07;;;;;;;2.40;0.40;;;;;;;;;;5040985;28;20041;-67
2022/09/27 13:45:33;;;;;;;2.33;0.22;;;;;;;;;;5051694;28;20098;-67
2022/09/27 13:48:00;;;;;;;2.25;0.40;;;;;;;;;;5056738;28;20454;-67
2022/09/27 13:50:28;;;;;;;2.00;0.35;;;;;;;;;;5053524;28;20040;-67
2022/09/27 13:53:20;;;;;;;2.72;0.40;;;;;;;;;;5054880;28;20083;-67
2022/09/27 13:55:50;;;;;;;2.78;0.50;;;;;;;;;;5033788;28;20077;-68
2022/09/27 13:58:19;;;;;;;3.00;0.60;;;;;;;;;;5057011;28;20124;-67
2022/09/27 14:00:47;;;;;;;2.05;0.30;;;;;;;;;;5052959;28;20033;-67
2022/09/27 14:03:25;;;;;;;1.38;0.40;;;;;;;;;;5052962;28;20064;-67
2022/09/27 14:05:56;;;;;;;2.03;0.38;;;;;;;;;;5055650;28;20056;-67
2022/09/27 14:08:23;;;;;;;2.00;0.40;;;;;;;;;;5069367;22;20048;-64
2022/09/27 14:10:50;;;;;;;2.55;0.52;;;;;;;;;;5068575;28;20462;-65
2022/09/27 14:13:19;;;;;;;1.33;0.30;;;;;;;;;;5066507;28;20044;-65
2022/09/27 14:15:45;;;;;;;2.55;0.50;;;;;;;;;;5066597;28;20552;-65
2022/09/27 14:18:13;;;;;;;1.50;0.52;;;;;;;;;;5070561;28;20532;-64
2022/09/27 14:20:47;;;;;;;2.30;0.40;;;;;;;;;;5071358;28;20527;-64
2022/09/27 14:23:16;;;;;;;1.48;0.30;;;;;;;;;;5069070;28;20086;-65
2022/09/27 14:25:47;;;;;;;1.00;0.20;;;;;;;;;;5065449;28;20045;-65
2022/09/27 14:28:29;;;;;;;0.38;0.30;;;;;;;;;;5070748;28;20036;-65
2022/09/27 14:31:05;;;;;;;0.50;0.20;;;;;;;;;;5073396;28;20036;-65
2022/09/27 14:33:33;;;;;;;0.63;0.30;;;;;;;;;;5070453;28;20072;-65
2022/09/27 14:38:47;;;;;;;1.48;0.30;;;;;;;;;;5069809;28;20407;-65
2022/09/27 14:41:14;;;;;;;0.57;0.20;;;;;;;;;;5058452;28;20048;-65
2022/09/27 14:43:44;;;;;;;1.55;0.20;;;;;;;;;;5071285;28;20037;-65
2022/09/27 14:46:24;;;;;;;0.63;0.20;;;;;;;;;;5073168;28;20063;-65
2022/09/27 14:48:50;;;;;;;2.58;0.35;;;;;;;;;;5077906;28;20490;-65
2022/09/27 14:51:21;;;;;;;0.95;0.35;;;;;;;;;;5070140;28;20039;-65
2022/09/27 14:53:48;;;;;;;1.45;0.40;;;;;;;;;;5068026;28;20041;-65
2022/09/27 14:56:17;;;;;;;1.25;0.50;;;;;;;;;;5067840;28;20509;-65
2022/09/27 14:58:46;;;;;;;4.70;0.70;;;;;;;;;;5082329;28;20290;-65
2022/09/27 15:01:16;;;;;;;4.78;0.50;;;;;;;;;;5073728;28;20401;-65
2022/09/27 15:03:44;;;;;;;1.30;0.40;;;;;;;;;;5071502;28;20036;-65
2022/09/27 15:06:10;;;;;;;2.58;0.60;;;;;;;;;;5069853;28;20050;-65
2022/09/27 15:08:37;;;;;;;2.05;0.40;;;;;;;;;;5071019;28;20079;-64
2022/09/27 15:11:09;;;;;;;1.70;0.38;;;;;;;;;;5069697;28;20218;-65